Time;durP1;ratioP1;P1;durP2;ratioP2;P2;SDS_P1;SDS_P2;PMS_P1;PMS_P2;Temp;Humidity;BMP_temperature;BMP_pressure;BME280_temperature;BME280_humidity;BME280_pressure;Samples;Min_cycle;Max_cycle;Signal;HPM_P1;HPM_P2
2023/06/17 00:02:18;;;;;;;11.35;8.80;;;;;;;;;;5012185;28;20046;-74
2023/06/17 00:04:46;;;;;;;14.15;7.97;;;;;;;;;;5013296;28;20046;-74
2023/06/17 00:07:12;;;;;;;11.63;9.00;;;;;;;;;;5012933;28;20049;-74
2023/06/17 00:09:41;;;;;;;13.10;9.35;;;;;;;;;;5015675;28;20106;-74
2023/06/17 00:12:08;;;;;;;17.05;10.10;;;;;;;;;;5016006;28;20046;-74
2023/06/17 00:14:34;;;;;;;12.65;9.20;;;;;;;;;;4997274;28;20405;-74
2023/06/17 00:17:00;;;;;;;13.95;10.27;;;;;;;;;;5015183;28;20057;-73
2023/06/17 00:19:27;;;;;;;12.57;9.43;;;;;;;;;;5016412;28;20077;-74
2023/06/17 00:21:54;;;;;;;13.43;9.15;;;;;;;;;;5014388;28;20506;-74
2023/06/17 00:24:20;;;;;;;12.23;9.32;;;;;;;;;;5010878;28;20046;-74
2023/06/17 00:26:47;;;;;;;11.27;9.57;;;;;;;;;;5016183;28;20041;-74
2023/06/17 00:29:15;;;;;;;16.20;10.32;;;;;;;;;;5012508;28;20065;-74
2023/06/17 00:31:41;;;;;;;12.00;8.98;;;;;;;;;;5014122;28;20436;-74
2023/06/17 00:34:07;;;;;;;14.48;9.68;;;;;;;;;;5014438;28;20045;-74
2023/06/17 00:36:33;;;;;;;15.18;9.77;;;;;;;;;;5016821;28;20045;-74
2023/06/17 00:38:59;;;;;;;14.15;9.68;;;;;;;;;;5017491;28;20042;-75
2023/06/17 00:41:25;;;;;;;15.93;10.80;;;;;;;;;;5016549;28;20120;-74
2023/06/17 00:43:51;;;;;;;15.88;10.65;;;;;;;;;;5013460;28;20049;-74
2023/06/17 00:46:29;;;;;;;16.98;9.88;;;;;;;;;;5015329;28;20046;-74
2023/06/17 00:48:55;;;;;;;16.08;10.35;;;;;;;;;;5015996;28;20479;-74
2023/06/17 00:51:22;;;;;;;17.55;10.60;;;;;;;;;;5016963;28;20115;-74
2023/06/17 00:53:48;;;;;;;17.83;11.98;;;;;;;;;;5016397;28;20041;-75
2023/06/17 00:56:17;;;;;;;14.57;11.48;;;;;;;;;;5014086;28;20038;-75
2023/06/17 00:58:43;;;;;;;18.25;12.68;;;;;;;;;;5014060;28;20068;-74
2023/06/17 01:01:10;;;;;;;18.35;12.65;;;;;;;;;;5012475;28;20124;-74
2023/06/17 01:03:36;;;;;;;18.05;12.88;;;;;;;;;;5013981;28;20056;-75
2023/06/17 01:06:07;;;;;;;18.92;13.60;;;;;;;;;;5014357;28;20053;-74
2023/06/17 01:08:40;;;;;;;20.33;14.05;;;;;;;;;;5012083;28;20125;-74
2023/06/17 01:11:08;;;;;;;18.33;15.45;;;;;;;;;;5012553;28;20041;-75
2023/06/17 01:13:35;;;;;;;22.02;15.88;;;;;;;;;;5013469;28;20050;-75
2023/06/17 01:16:02;;;;;;;23.17;15.57;;;;;;;;;;5014436;28;20069;-75
2023/06/17 01:18:29;;;;;;;22.40;16.48;;;;;;;;;;5015124;28;20088;-75
2023/06/17 01:20:55;;;;;;;29.08;19.95;;;;;;;;;;5012049;28;20046;-74
2023/06/17 01:23:23;;;;;;;24.98;19.48;;;;;;;;;;5027970;28;20483;-74
2023/06/17 01:25:49;;;;;;;26.48;19.55;;;;;;;;;;5012514;28;20108;-75
2023/06/17 01:28:17;;;;;;;27.80;19.58;;;;;;;;;;5015449;28;20576;-75
2023/06/17 01:30:44;;;;;;;26.33;19.10;;;;;;;;;;5013180;28;20069;-75
2023/06/17 01:33:12;;;;;;;24.25;20.08;;;;;;;;;;5014469;28;20132;-75
2023/06/17 01:35:39;;;;;;;27.60;20.52;;;;;;;;;;5013803;28;20061;-75
2023/06/17 01:38:11;;;;;;;25.60;20.08;;;;;;;;;;5010319;28;20112;-74
2023/06/17 01:40:39;;;;;;;25.75;20.40;;;;;;;;;;4995717;28;20125;-74
2023/06/17 01:43:06;;;;;;;27.00;21.05;;;;;;;;;;5006867;28;20042;-74
2023/06/17 01:45:32;;;;;;;24.67;19.77;;;;;;;;;;5013335;28;20126;-73
2023/06/17 01:47:59;;;;;;;24.98;20.83;;;;;;;;;;5015714;28;20046;-73
2023/06/17 01:50:25;;;;;;;26.42;20.58;;;;;;;;;;5014281;28;20049;-73
2023/06/17 01:52:51;;;;;;;23.67;19.60;;;;;;;;;;5012203;28;20053;-73
2023/06/17 01:55:18;;;;;;;28.55;21.80;;;;;;;;;;5022145;28;20041;-73
2023/06/17 01:57:44;;;;;;;29.63;21.02;;;;;;;;;;5014153;28;20085;-74
2023/06/17 02:00:12;;;;;;;29.85;20.33;;;;;;;;;;5014557;28;20450;-74
2023/06/17 02:02:39;;;;;;;25.15;20.25;;;;;;;;;;5011143;28;20077;-73
2023/06/17 02:05:06;;;;;;;21.83;19.40;;;;;;;;;;5015101;28;20042;-73
2023/06/17 02:07:33;;;;;;;26.73;20.42;;;;;;;;;;5014246;28;20082;-74
2023/06/17 02:10:00;;;;;;;26.90;18.98;;;;;;;;;;5014807;28;20483;-74
2023/06/17 02:12:26;;;;;;;24.52;21.08;;;;;;;;;;5012818;28;20120;-74
2023/06/17 02:14:52;;;;;;;23.75;20.10;;;;;;;;;;5013821;28;20046;-74
2023/06/17 02:17:18;;;;;;;26.15;20.90;;;;;;;;;;5013234;28;20042;-74
2023/06/17 02:19:44;;;;;;;24.38;21.58;;;;;;;;;;5013477;28;20420;-74
2023/06/17 02:22:10;;;;;;;26.17;21.15;;;;;;;;;;5011964;28;20507;-74
2023/06/17 02:24:36;;;;;;;27.52;22.45;;;;;;;;;;5013022;28;20487;-75
2023/06/17 02:27:03;;;;;;;27.50;21.83;;;;;;;;;;5013465;28;20052;-73
2023/06/17 02:29:29;;;;;;;26.35;21.88;;;;;;;;;;5001329;28;20519;-74
2023/06/17 02:31:55;;;;;;;28.13;22.05;;;;;;;;;;5015286;28;20099;-74
2023/06/17 02:34:21;;;;;;;26.92;20.80;;;;;;;;;;5016037;28;20046;-73
2023/06/17 02:36:48;;;;;;;26.80;22.05;;;;;;;;;;5014951;28;20385;-75
2023/06/17 02:39:14;;;;;;;28.40;22.83;;;;;;;;;;5014785;28;20404;-73
2023/06/17 02:41:40;;;;;;;28.83;22.73;;;;;;;;;;5015762;28;20096;-74
2023/06/17 02:44:06;;;;;;;24.77;20.50;;;;;;;;;;5015169;28;20046;-73
2023/06/17 02:46:32;;;;;;;27.02;21.35;;;;;;;;;;5022595;28;20067;-73
2023/06/17 02:48:58;;;;;;;27.77;22.67;;;;;;;;;;5017916;28;20081;-73
2023/06/17 02:51:25;;;;;;;27.58;22.27;;;;;;;;;;5018237;28;20399;-74
2023/06/17 02:53:51;;;;;;;25.38;21.30;;;;;;;;;;5020152;28;20046;-74
2023/06/17 02:56:17;;;;;;;27.70;22.08;;;;;;;;;;5017134;28;20412;-74
2023/06/17 02:58:45;;;;;;;27.75;22.90;;;;;;;;;;5019218;28;20053;-73
2023/06/17 03:01:12;;;;;;;29.58;23.45;;;;;;;;;;5020008;28;20122;-74
2023/06/17 03:03:41;;;;;;;31.38;23.75;;;;;;;;;;5018193;28;20073;-74
2023/06/17 03:06:08;;;;;;;28.73;24.00;;;;;;;;;;5016151;28;20125;-75
2023/06/17 03:08:34;;;;;;;31.45;24.50;;;;;;;;;;5020172;28;20049;-73
2023/06/17 03:11:00;;;;;;;26.63;22.00;;;;;;;;;;5021867;28;20049;-74
2023/06/17 03:13:27;;;;;;;27.63;23.08;;;;;;;;;;5021543;28;20499;-74
2023/06/17 03:15:53;;;;;;;26.20;22.10;;;;;;;;;;5029732;28;20092;-74
2023/06/17 03:18:22;;;;;;;26.23;23.35;;;;;;;;;;5018652;28;20501;-75
2023/06/17 03:20:50;;;;;;;28.08;23.00;;;;;;;;;;5022283;28;20134;-74
2023/06/17 03:23:16;;;;;;;27.75;24.00;;;;;;;;;;5015364;28;20579;-75
2023/06/17 03:25:42;;;;;;;26.27;22.25;;;;;;;;;;5015571;28;20065;-74
2023/06/17 03:28:09;;;;;;;28.98;23.50;;;;;;;;;;5015153;28;20038;-73
2023/06/17 03:30:35;;;;;;;26.73;23.77;;;;;;;;;;5015833;28;20116;-74
2023/06/17 03:33:01;;;;;;;28.67;23.52;;;;;;;;;;5015879;28;20141;-73
2023/06/17 03:35:27;;;;;;;25.20;22.35;;;;;;;;;;5017261;28;20060;-73
2023/06/17 03:37:53;;;;;;;24.98;22.25;;;;;;;;;;5016119;28;20072;-74
2023/06/17 03:40:19;;;;;;;26.27;22.48;;;;;;;;;;5018507;28;20496;-74
2023/06/17 03:42:46;;;;;;;27.10;21.88;;;;;;;;;;5009608;28;20118;-74
2023/06/17 03:45:12;;;;;;;26.80;23.92;;;;;;;;;;5017892;28;20054;-73
2023/06/17 03:47:38;;;;;;;25.65;22.77;;;;;;;;;;5017412;28;20139;-73
2023/06/17 03:50:05;;;;;;;27.65;22.85;;;;;;;;;;5013088;28;20055;-73
2023/06/17 03:52:31;;;;;;;26.92;24.08;;;;;;;;;;5017502;28;20041;-74
2023/06/17 03:54:57;;;;;;;29.80;23.73;;;;;;;;;;5017041;28;20408;-74
2023/06/17 03:57:23;;;;;;;26.30;22.35;;;;;;;;;;5015955;28;20057;-74
2023/06/17 03:59:49;;;;;;;28.92;23.92;;;;;;;;;;5016744;28;20096;-74
2023/06/17 04:02:15;;;;;;;27.77;24.27;;;;;;;;;;5015172;28;20046;-74
2023/06/17 04:04:42;;;;;;;27.40;22.73;;;;;;;;;;5016340;28;20046;-74
2023/06/17 04:07:08;;;;;;;26.95;23.42;;;;;;;;;;5014476;28;20092;-74
2023/06/17 04:09:35;;;;;;;25.48;21.85;;;;;;;;;;5014672;28;20046;-74
2023/06/17 04:12:03;;;;;;;31.50;24.40;;;;;;;;;;5013614;28;20108;-74
2023/06/17 04:14:29;;;;;;;25.92;23.23;;;;;;;;;;5013219;28;20046;-73
2023/06/17 04:16:59;;;;;;;28.50;23.17;;;;;;;;;;5015126;28;20120;-74
2023/06/17 04:19:25;;;;;;;31.15;24.10;;;;;;;;;;5013791;28;20466;-73
2023/06/17 04:21:51;;;;;;;26.20;23.25;;;;;;;;;;5017911;28;20053;-73
2023/06/17 04:24:17;;;;;;;33.78;23.70;;;;;;;;;;5017843;28;20042;-73
2023/06/17 04:26:44;;;;;;;26.85;23.23;;;;;;;;;;5012842;28;20049;-74
2023/06/17 04:29:11;;;;;;;29.45;23.27;;;;;;;;;;5014226;28;20172;-74
2023/06/17 04:31:40;;;;;;;27.85;22.75;;;;;;;;;;5010549;28;20042;-74
2023/06/17 04:34:06;;;;;;;27.00;24.17;;;;;;;;;;5010518;28;20120;-73
2023/06/17 04:36:34;;;;;;;27.02;23.02;;;;;;;;;;5012488;28;20046;-74
2023/06/17 04:39:00;;;;;;;25.45;22.80;;;;;;;;;;5015432;28;20092;-74
2023/06/17 04:41:27;;;;;;;32.83;24.45;;;;;;;;;;4996368;28;20038;-74
2023/06/17 04:43:54;;;;;;;26.17;22.42;;;;;;;;;;5010162;28;20053;-74
2023/06/17 04:46:20;;;;;;;30.90;23.75;;;;;;;;;;5014352;28;20135;-74
2023/06/17 04:48:47;;;;;;;26.73;23.42;;;;;;;;;;5013682;28;20045;-74
2023/06/17 04:51:13;;;;;;;28.45;22.42;;;;;;;;;;5013541;28;20088;-74
2023/06/17 04:53:39;;;;;;;28.65;23.95;;;;;;;;;;5012206;28;20038;-74
2023/06/17 04:56:08;;;;;;;30.13;23.15;;;;;;;;;;5014545;28;20137;-74
2023/06/17 04:58:34;;;;;;;25.65;22.45;;;;;;;;;;5012172;28;20049;-74
2023/06/17 05:01:00;;;;;;;26.73;22.95;;;;;;;;;;5005841;28;20041;-73
2023/06/17 05:03:26;;;;;;;27.45;23.23;;;;;;;;;;5005532;28;20105;-73
2023/06/17 05:05:53;;;;;;;27.77;24.65;;;;;;;;;;5014446;28;20038;-73
2023/06/17 05:08:19;;;;;;;26.75;23.85;;;;;;;;;;5014203;28;20090;-74
2023/06/17 05:10:45;;;;;;;29.40;24.05;;;;;;;;;;5015476;28;20061;-74
2023/06/17 05:13:11;;;;;;;25.15;22.48;;;;;;;;;;5014478;28;20045;-75
2023/06/17 05:15:37;;;;;;;28.42;23.88;;;;;;;;;;5015628;28;20058;-74
2023/06/17 05:18:03;;;;;;;27.55;23.92;;;;;;;;;;5015606;28;20483;-74
2023/06/17 05:20:30;;;;;;;27.98;23.10;;;;;;;;;;5013332;28;20133;-74
2023/06/17 05:22:56;;;;;;;32.03;24.48;;;;;;;;;;5013142;28;20053;-74
2023/06/17 05:25:22;;;;;;;32.50;23.55;;;;;;;;;;5012183;28;20044;-74
2023/06/17 05:27:48;;;;;;;25.42;22.63;;;;;;;;;;5007521;28;20574;-73
2023/06/17 05:30:14;;;;;;;26.27;22.48;;;;;;;;;;5015303;28;20084;-74
2023/06/17 05:32:40;;;;;;;26.33;21.98;;;;;;;;;;5010450;28;20049;-74
2023/06/17 05:35:06;;;;;;;24.55;21.13;;;;;;;;;;5010620;28;20049;-73
2023/06/17 05:37:33;;;;;;;24.15;21.35;;;;;;;;;;5005055;28;20058;-73
2023/06/17 05:39:59;;;;;;;26.58;22.90;;;;;;;;;;5006001;28;20428;-74
2023/06/17 05:42:25;;;;;;;25.23;21.15;;;;;;;;;;5015391;28;20045;-74
2023/06/17 05:44:51;;;;;;;26.98;22.25;;;;;;;;;;5015409;28;20054;-73
2023/06/17 05:47:17;;;;;;;29.42;24.63;;;;;;;;;;5014238;28;20046;-73
2023/06/17 05:49:43;;;;;;;28.98;22.75;;;;;;;;;;5013092;28;20046;-73
2023/06/17 05:52:10;;;;;;;27.50;23.23;;;;;;;;;;5015286;28;20072;-73
2023/06/17 05:54:38;;;;;;;27.15;23.67;;;;;;;;;;5012800;28;20060;-74
2023/06/17 05:57:05;;;;;;;29.08;24.15;;;;;;;;;;5014647;28;20053;-75
2023/06/17 05:59:31;;;;;;;28.65;24.08;;;;;;;;;;5014435;28;20054;-73
2023/06/17 06:01:57;;;;;;;33.22;25.10;;;;;;;;;;5012876;28;20487;-73
2023/06/17 06:04:23;;;;;;;25.92;23.15;;;;;;;;;;5013277;28;20104;-73
2023/06/17 06:06:49;;;;;;;27.98;25.08;;;;;;;;;;5013859;28;20460;-73
2023/06/17 06:09:15;;;;;;;27.98;23.33;;;;;;;;;;5014728;28;20042;-74
2023/06/17 06:11:41;;;;;;;29.42;23.38;;;;;;;;;;5014495;28;20054;-74
2023/06/17 06:14:07;;;;;;;26.85;24.08;;;;;;;;;;5013702;28;20053;-75
2023/06/17 06:16:33;;;;;;;28.20;24.70;;;;;;;;;;5009528;28;20083;-75
2023/06/17 06:18:59;;;;;;;31.80;25.75;;;;;;;;;;5014459;28;20057;-75
2023/06/17 06:21:25;;;;;;;26.70;23.05;;;;;;;;;;5018576;28;20045;-75
2023/06/17 06:23:52;;;;;;;27.40;24.17;;;;;;;;;;5014858;28;20123;-74
2023/06/17 06:26:18;;;;;;;27.35;24.42;;;;;;;;;;5015767;28;20054;-74
2023/06/17 06:28:44;;;;;;;26.98;23.75;;;;;;;;;;5019311;28;20411;-74
2023/06/17 06:31:11;;;;;;;26.80;23.92;;;;;;;;;;5015075;28;20050;-74
2023/06/17 06:33:37;;;;;;;27.35;23.88;;;;;;;;;;5016611;28;20053;-73
2023/06/17 06:36:03;;;;;;;30.33;23.67;;;;;;;;;;5015371;28;20572;-73
2023/06/17 06:38:30;;;;;;;26.20;20.90;;;;;;;;;;5015962;28;20066;-73
2023/06/17 06:40:56;;;;;;;26.00;21.75;;;;;;;;;;5015310;28;20407;-73
2023/06/17 06:43:23;;;;;;;27.17;23.52;;;;;;;;;;5017112;28;20100;-73
2023/06/17 06:45:49;;;;;;;26.20;22.80;;;;;;;;;;5012191;28;20133;-73
2023/06/17 06:48:15;;;;;;;28.60;22.90;;;;;;;;;;5016030;28;20402;-73
2023/06/17 06:50:41;;;;;;;27.40;22.67;;;;;;;;;;5008045;28;20042;-74
2023/06/17 06:53:07;;;;;;;27.35;23.48;;;;;;;;;;5014857;28;20048;-73
2023/06/17 06:55:33;;;;;;;27.42;23.58;;;;;;;;;;5009981;28;20049;-75
2023/06/17 06:58:00;;;;;;;23.48;20.98;;;;;;;;;;5013468;28;20076;-73
2023/06/17 07:00:26;;;;;;;24.67;20.30;;;;;;;;;;5012505;28;20057;-73
2023/06/17 07:02:52;;;;;;;22.33;19.75;;;;;;;;;;4997223;28;20046;-74
2023/06/17 07:05:21;;;;;;;24.33;21.13;;;;;;;;;;5014203;28;20106;-74
2023/06/17 07:07:47;;;;;;;26.55;20.83;;;;;;;;;;5004956;28;21527;-74
2023/06/17 07:10:13;;;;;;;25.83;21.33;;;;;;;;;;5015312;28;20048;-73
2023/06/17 07:12:41;;;;;;;24.92;21.73;;;;;;;;;;5016768;28;20054;-73
2023/06/17 07:15:07;;;;;;;25.13;19.35;;;;;;;;;;5016411;28;20443;-73
2023/06/17 07:17:33;;;;;;;25.05;21.55;;;;;;;;;;5016234;28;20048;-73
2023/06/17 07:19:59;;;;;;;21.83;19.38;;;;;;;;;;5014938;28;20045;-73
2023/06/17 07:22:25;;;;;;;21.48;18.83;;;;;;;;;;5015780;28;20041;-73
2023/06/17 07:24:54;;;;;;;23.10;18.95;;;;;;;;;;5014720;28;20053;-74
2023/06/17 07:27:20;;;;;;;23.38;19.58;;;;;;;;;;5024421;28;20053;-72
2023/06/17 07:29:46;;;;;;;24.77;20.50;;;;;;;;;;5012392;28;20064;-74
2023/06/17 07:32:12;;;;;;;23.70;19.80;;;;;;;;;;4996441;28;20403;-73
2023/06/17 07:34:38;;;;;;;23.30;19.17;;;;;;;;;;5014634;28;20050;-73
2023/06/17 07:37:04;;;;;;;20.75;18.52;;;;;;;;;;5014700;28;20050;-73
2023/06/17 07:39:30;;;;;;;21.92;19.63;;;;;;;;;;5033884;28;20037;-74
2023/06/17 07:41:56;;;;;;;25.60;19.42;;;;;;;;;;5035719;28;20068;-74
2023/06/17 07:44:23;;;;;;;19.23;17.20;;;;;;;;;;5022685;28;20050;-73
2023/06/17 07:46:49;;;;;;;20.27;18.17;;;;;;;;;;5017970;28;20058;-73
2023/06/17 07:49:15;;;;;;;21.05;17.40;;;;;;;;;;5017724;28;20164;-74
2023/06/17 07:51:41;;;;;;;20.17;17.52;;;;;;;;;;5017264;28;20046;-76
2023/06/17 07:54:06;;;;;;;20.75;17.73;;;;;;;;;;5016384;28;20075;-74
2023/06/17 07:56:33;;;;;;;20.10;17.75;;;;;;;;;;5013815;28;20046;-74
2023/06/17 07:59:02;;;;;;;20.23;16.85;;;;;;;;;;5015415;28;20188;-73
2023/06/17 08:01:28;;;;;;;20.67;17.60;;;;;;;;;;5014516;28;20090;-73
2023/06/17 08:03:54;;;;;;;21.15;16.80;;;;;;;;;;5013078;28;20049;-74
2023/06/17 08:06:20;;;;;;;20.20;17.55;;;;;;;;;;5012428;28;20416;-73
2023/06/17 08:08:46;;;;;;;19.10;16.02;;;;;;;;;;4997432;28;20050;-73
2023/06/17 08:11:12;;;;;;;19.17;15.60;;;;;;;;;;5013980;28;20079;-73
2023/06/17 08:13:38;;;;;;;21.67;15.85;;;;;;;;;;5012112;28;20050;-73
2023/06/17 08:16:04;;;;;;;22.08;16.60;;;;;;;;;;5010767;28;20049;-73
2023/06/17 08:18:30;;;;;;;18.88;15.88;;;;;;;;;;5014063;28;20046;-73
2023/06/17 08:20:57;;;;;;;18.02;15.55;;;;;;;;;;5014123;28;20050;-74
2023/06/17 08:23:23;;;;;;;18.08;14.98;;;;;;;;;;5013591;28;20049;-74
2023/06/17 08:25:49;;;;;;;20.83;15.63;;;;;;;;;;5011618;28;20050;-73
2023/06/17 08:28:15;;;;;;;17.95;15.55;;;;;;;;;;5012892;28;20108;-73
2023/06/17 08:30:41;;;;;;;17.80;15.68;;;;;;;;;;5010638;28;20057;-73
2023/06/17 08:33:08;;;;;;;17.42;14.43;;;;;;;;;;5014142;28;20132;-73
2023/06/17 08:35:34;;;;;;;21.13;16.30;;;;;;;;;;5013577;28;20073;-73
2023/06/17 08:38:01;;;;;;;18.48;14.93;;;;;;;;;;5014968;28;20089;-73
2023/06/17 08:40:27;;;;;;;17.73;15.60;;;;;;;;;;5008427;28;20056;-73
2023/06/17 08:43:03;;;;;;;18.17;14.88;;;;;;;;;;5012520;28;20084;-73
2023/06/17 08:45:33;;;;;;;19.98;16.20;;;;;;;;;;5012484;28;20062;-73
2023/06/17 08:47:59;;;;;;;17.25;15.45;;;;;;;;;;5013987;28;20463;-73
2023/06/17 08:50:27;;;;;;;18.02;15.15;;;;;;;;;;5013972;28;20042;-74
2023/06/17 08:52:54;;;;;;;18.50;14.52;;;;;;;;;;5013402;28;20125;-73
2023/06/17 08:55:20;;;;;;;21.38;16.48;;;;;;;;;;5013588;28;20037;-73
2023/06/17 08:57:48;;;;;;;21.10;15.50;;;;;;;;;;5013599;28;20045;-74
2023/06/17 09:00:14;;;;;;;18.20;14.93;;;;;;;;;;5013450;28;20065;-73
2023/06/17 09:02:43;;;;;;;18.63;14.63;;;;;;;;;;5012435;28;20046;-73
2023/06/17 09:05:09;;;;;;;17.35;14.65;;;;;;;;;;5015067;28;20042;-74
2023/06/17 09:07:35;;;;;;;14.60;12.48;;;;;;;;;;5014132;28;20500;-74
2023/06/17 09:10:05;;;;;;;17.13;12.75;;;;;;;;;;5015266;28;20396;-73
2023/06/17 09:12:38;;;;;;;21.30;14.43;;;;;;;;;;5013265;28;20567;-74
2023/06/17 09:15:15;;;;;;;16.35;14.05;;;;;;;;;;5012248;28;20046;-72
2023/06/17 09:17:43;;;;;;;18.38;14.80;;;;;;;;;;5009147;28;20045;-73
2023/06/17 09:20:13;;;;;;;19.27;13.70;;;;;;;;;;5012198;28;20056;-72
2023/06/17 09:22:44;;;;;;;19.85;15.77;;;;;;;;;;5014880;28;20037;-73
2023/06/17 09:25:14;;;;;;;17.50;13.75;;;;;;;;;;5009639;28;20060;-72
2023/06/17 09:27:46;;;;;;;20.15;13.23;;;;;;;;;;5012079;28;20109;-73
2023/06/17 09:30:14;;;;;;;17.67;13.10;;;;;;;;;;5011119;28;20058;-73
2023/06/17 09:32:40;;;;;;;19.88;12.73;;;;;;;;;;5012392;28;20068;-73
2023/06/17 09:35:07;;;;;;;20.45;12.98;;;;;;;;;;5010306;28;20137;-73
2023/06/17 09:37:34;;;;;;;17.25;12.88;;;;;;;;;;5005411;28;20065;-73
2023/06/17 09:40:01;;;;;;;16.40;12.65;;;;;;;;;;5013082;28;20046;-73
2023/06/17 09:42:33;;;;;;;17.50;11.50;;;;;;;;;;5010182;28;20042;-73
2023/06/17 09:45:03;;;;;;;17.02;12.00;;;;;;;;;;5007654;28;20046;-73
2023/06/17 09:47:37;;;;;;;16.47;12.97;;;;;;;;;;5009138;28;20052;-74
2023/06/17 09:50:08;;;;;;;17.67;11.80;;;;;;;;;;4996786;28;20713;-72
2023/06/17 09:52:35;;;;;;;14.88;12.18;;;;;;;;;;5012550;28;20046;-73
2023/06/17 09:55:02;;;;;;;16.98;11.80;;;;;;;;;;5013551;28;20050;-73
2023/06/17 09:57:32;;;;;;;14.05;11.80;;;;;;;;;;5014640;28;20042;-73
2023/06/17 10:00:09;;;;;;;15.13;12.43;;;;;;;;;;5011225;28;20057;-74
2023/06/17 10:02:36;;;;;;;16.50;11.07;;;;;;;;;;5009687;28;20066;-74
2023/06/17 10:05:03;;;;;;;13.93;11.13;;;;;;;;;;5016105;28;20042;-73
2023/06/17 10:07:29;;;;;;;15.20;10.70;;;;;;;;;;5013484;28;20175;-75
2023/06/17 10:09:56;;;;;;;13.82;10.98;;;;;;;;;;5017070;28;21181;-72
2023/06/17 10:12:22;;;;;;;13.73;11.15;;;;;;;;;;5014812;28;20042;-73
2023/06/17 10:14:49;;;;;;;16.23;12.23;;;;;;;;;;5013032;28;20046;-72
2023/06/17 10:17:16;;;;;;;14.13;11.20;;;;;;;;;;5012957;28;20034;-73
2023/06/17 10:19:43;;;;;;;13.15;10.20;;;;;;;;;;5014897;28;20073;-72
2023/06/17 10:22:11;;;;;;;12.88;9.80;;;;;;;;;;5009139;28;20368;-73
2023/06/17 10:24:37;;;;;;;12.80;9.80;;;;;;;;;;5014481;28;20068;-73
2023/06/17 10:27:04;;;;;;;13.43;10.20;;;;;;;;;;5016425;28;20053;-73
2023/06/17 10:29:30;;;;;;;15.90;10.30;;;;;;;;;;5014396;28;20096;-72
2023/06/17 10:31:56;;;;;;;16.17;10.27;;;;;;;;;;5015424;28;20064;-73
2023/06/17 10:34:22;;;;;;;14.15;9.75;;;;;;;;;;5014167;28;20042;-72
2023/06/17 10:36:51;;;;;;;12.18;9.00;;;;;;;;;;5013570;28;20046;-74
2023/06/17 10:39:17;;;;;;;15.90;8.50;;;;;;;;;;5014097;28;20049;-74
2023/06/17 10:41:46;;;;;;;14.98;8.50;;;;;;;;;;5014387;28;20121;-73
2023/06/17 10:44:21;;;;;;;14.80;8.35;;;;;;;;;;5011521;28;20042;-73
2023/06/17 10:46:50;;;;;;;13.15;8.48;;;;;;;;;;5008648;28;20050;-73
2023/06/17 10:49:21;;;;;;;12.15;8.45;;;;;;;;;;5014725;28;20046;-73
2023/06/17 10:51:47;;;;;;;12.45;8.57;;;;;;;;;;5011197;28;20562;-73
2023/06/17 10:54:13;;;;;;;12.40;9.20;;;;;;;;;;5007954;28;20096;-72
2023/06/17 10:56:46;;;;;;;11.02;8.63;;;;;;;;;;5007529;28;20499;-73
2023/06/17 10:59:12;;;;;;;11.07;7.85;;;;;;;;;;5009573;28;20060;-73
2023/06/17 11:01:42;;;;;;;12.52;8.70;;;;;;;;;;5011425;28;20396;-74
2023/06/17 11:04:08;;;;;;;13.07;7.90;;;;;;;;;;5012660;28;20475;-72
2023/06/17 11:06:34;;;;;;;10.85;7.72;;;;;;;;;;5012716;28;20049;-72
2023/06/17 11:09:04;;;;;;;13.27;7.88;;;;;;;;;;5013047;28;20049;-73
2023/06/17 11:11:33;;;;;;;13.27;7.75;;;;;;;;;;5010065;28;20064;-73
2023/06/17 11:13:59;;;;;;;11.52;7.28;;;;;;;;;;5011466;28;20046;-70
2023/06/17 11:16:25;;;;;;;10.13;7.20;;;;;;;;;;5012816;28;20049;-69
2023/06/17 11:18:51;;;;;;;12.00;7.78;;;;;;;;;;5011759;28;20046;-69
2023/06/17 11:21:18;;;;;;;10.82;6.68;;;;;;;;;;5012160;28;20125;-69
2023/06/17 11:23:44;;;;;;;13.15;7.95;;;;;;;;;;4997496;28;20160;-69
2023/06/17 11:26:10;;;;;;;15.55;8.13;;;;;;;;;;5010949;28;20241;-69
2023/06/17 11:28:36;;;;;;;11.32;7.38;;;;;;;;;;5012132;28;20103;-71
2023/06/17 11:31:03;;;;;;;17.90;8.38;;;;;;;;;;5012544;28;20050;-70
2023/06/17 11:33:30;;;;;;;9.80;6.63;;;;;;;;;;5011194;28;20049;-69
2023/06/17 11:35:57;;;;;;;11.65;7.88;;;;;;;;;;5008885;28;20062;-69
2023/06/17 11:38:24;;;;;;;11.35;7.20;;;;;;;;;;5012404;28;20050;-68
2023/06/17 11:40:55;;;;;;;11.48;7.30;;;;;;;;;;5005519;28;20046;-69
2023/06/17 11:43:25;;;;;;;11.40;7.65;;;;;;;;;;5008516;28;20466;-68
2023/06/17 11:45:51;;;;;;;12.32;7.57;;;;;;;;;;5010831;28;20045;-68
2023/06/17 11:48:18;;;;;;;14.52;7.13;;;;;;;;;;5006517;28;20099;-68
2023/06/17 11:50:44;;;;;;;11.63;7.30;;;;;;;;;;5005592;28;20057;-69
2023/06/17 11:53:10;;;;;;;10.35;6.90;;;;;;;;;;5006119;28;20128;-69
2023/06/17 11:55:36;;;;;;;10.52;6.65;;;;;;;;;;5008176;28;20077;-69
2023/06/17 11:58:05;;;;;;;11.25;7.55;;;;;;;;;;5012319;28;20358;-69
2023/06/17 12:00:36;;;;;;;9.13;7.03;;;;;;;;;;5013382;28;20053;-70
2023/06/17 12:03:05;;;;;;;9.45;6.88;;;;;;;;;;5008564;28;20112;-70
2023/06/17 12:05:32;;;;;;;12.80;7.55;;;;;;;;;;5009954;28;21078;-71
2023/06/17 12:07:59;;;;;;;12.55;7.45;;;;;;;;;;5012984;28;20041;-69
2023/06/17 12:10:26;;;;;;;11.63;6.60;;;;;;;;;;4997072;28;20088;-69
2023/06/17 12:12:56;;;;;;;10.10;6.65;;;;;;;;;;4997940;28;20042;-71
2023/06/17 12:15:26;;;;;;;12.38;7.25;;;;;;;;;;5010538;28;20080;-69
2023/06/17 12:17:52;;;;;;;11.23;7.00;;;;;;;;;;5011834;28;20119;-70
2023/06/17 12:20:19;;;;;;;11.35;6.80;;;;;;;;;;5010833;28;20046;-70
2023/06/17 12:22:46;;;;;;;10.82;6.40;;;;;;;;;;5012512;28;20060;-70
2023/06/17 12:25:12;;;;;;;12.40;7.60;;;;;;;;;;5013191;28;20400;-70
2023/06/17 12:27:40;;;;;;;9.98;6.97;;;;;;;;;;5012188;28;20101;-70
2023/06/17 12:30:06;;;;;;;10.30;6.47;;;;;;;;;;5014618;28;20061;-70
2023/06/17 12:32:32;;;;;;;8.90;7.05;;;;;;;;;;5011128;28;20038;-70
2023/06/17 12:34:59;;;;;;;10.55;6.95;;;;;;;;;;5003713;28;20129;-70
2023/06/17 12:37:28;;;;;;;11.57;7.07;;;;;;;;;;5006222;28;20090;-69
2023/06/17 12:39:57;;;;;;;11.15;7.03;;;;;;;;;;5005863;28;20084;-70
2023/06/17 12:42:23;;;;;;;9.57;6.72;;;;;;;;;;5005243;28;20057;-70
2023/06/17 12:44:50;;;;;;;9.80;6.20;;;;;;;;;;5006510;28;20041;-69
2023/06/17 12:47:16;;;;;;;10.50;6.75;;;;;;;;;;5003849;28;20050;-69
2023/06/17 12:49:42;;;;;;;11.38;6.82;;;;;;;;;;5008527;28;20042;-70
2023/06/17 12:52:09;;;;;;;9.50;6.18;;;;;;;;;;5010405;28;20517;-70
2023/06/17 12:54:35;;;;;;;10.38;7.07;;;;;;;;;;5012698;28;20085;-71
2023/06/17 12:57:02;;;;;;;10.18;6.68;;;;;;;;;;5012714;28;20124;-70
2023/06/17 12:59:30;;;;;;;11.45;6.20;;;;;;;;;;5011845;28;20057;-70
2023/06/17 13:01:56;;;;;;;10.10;6.68;;;;;;;;;;5007700;28;20069;-70
2023/06/17 13:04:22;;;;;;;12.20;6.22;;;;;;;;;;5012117;28;20042;-70
2023/06/17 13:06:48;;;;;;;10.75;6.28;;;;;;;;;;5019861;28;20092;-69
2023/06/17 13:09:14;;;;;;;8.90;5.90;;;;;;;;;;5012648;28;20420;-70
2023/06/17 13:11:42;;;;;;;11.70;6.45;;;;;;;;;;5012442;28;20433;-69
2023/06/17 13:14:08;;;;;;;9.98;6.60;;;;;;;;;;5013057;28;20119;-71
2023/06/17 13:16:34;;;;;;;13.73;7.00;;;;;;;;;;5011558;28;20065;-69
2023/06/17 13:19:00;;;;;;;9.13;6.18;;;;;;;;;;5009395;28;20038;-70
2023/06/17 13:21:27;;;;;;;8.75;6.20;;;;;;;;;;5012391;28;20132;-70
2023/06/17 13:23:53;;;;;;;12.52;6.57;;;;;;;;;;5012260;28;20049;-70
2023/06/17 13:26:20;;;;;;;10.82;6.78;;;;;;;;;;5010880;28;20042;-70
2023/06/17 13:28:46;;;;;;;9.93;6.30;;;;;;;;;;5011340;28;20144;-70
2023/06/17 13:31:12;;;;;;;9.70;6.65;;;;;;;;;;5008797;28;20085;-70
2023/06/17 13:33:39;;;;;;;9.60;6.50;;;;;;;;;;5009292;28;20149;-70
2023/06/17 13:36:05;;;;;;;9.52;6.40;;;;;;;;;;5010333;28;20137;-69
2023/06/17 13:38:31;;;;;;;10.77;6.55;;;;;;;;;;5012865;28;20118;-71
2023/06/17 13:40:57;;;;;;;9.60;6.35;;;;;;;;;;5011789;28;20530;-70
2023/06/17 13:43:23;;;;;;;10.82;6.60;;;;;;;;;;5011662;28;20118;-70
2023/06/17 13:45:49;;;;;;;12.07;6.55;;;;;;;;;;5012197;28;20492;-71
2023/06/17 13:48:17;;;;;;;12.02;6.70;;;;;;;;;;5010698;28;20118;-71
2023/06/17 13:50:43;;;;;;;9.55;6.78;;;;;;;;;;5011607;28;20065;-69
2023/06/17 13:53:09;;;;;;;10.65;6.03;;;;;;;;;;4995784;28;20058;-70
2023/06/17 13:55:36;;;;;;;9.45;6.63;;;;;;;;;;5000907;28;20048;-70
2023/06/17 13:58:02;;;;;;;12.05;6.70;;;;;;;;;;5012177;28;20409;-70
2023/06/17 14:00:28;;;;;;;12.07;6.60;;;;;;;;;;5014622;28;20057;-74
2023/06/17 14:02:54;;;;;;;8.82;6.00;;;;;;;;;;4996168;28;20042;-73
2023/06/17 14:05:20;;;;;;;11.45;6.70;;;;;;;;;;5014100;28;20475;-73
2023/06/17 14:07:46;;;;;;;8.85;5.80;;;;;;;;;;5012252;28;20096;-73
2023/06/17 14:10:13;;;;;;;10.43;6.57;;;;;;;;;;5013099;28;20141;-73
2023/06/17 14:12:39;;;;;;;12.00;6.53;;;;;;;;;;5009045;28;20054;-73
2023/06/17 14:15:05;;;;;;;11.63;6.30;;;;;;;;;;5012298;28;20056;-73
2023/06/17 14:17:31;;;;;;;11.63;6.50;;;;;;;;;;5010142;28;20038;-73
2023/06/17 14:19:57;;;;;;;10.32;6.72;;;;;;;;;;5012644;28;20049;-73